Forside
METAR-TAF:

METAR-TAF

Lufthavne :

Marquette, Michigan, USA

Breddekreds: 46-21-13N, længdekreds: 087-23-45W, højde: 372 m

Aktuelle vejr

Denne rapport blev lavet for 20 minutter siden, kl. 06:18 UTC
Vind stille
Temperatur 2°C
Fugtighed 87%
Tryk 1021 hPa
Sigt: 16.1 km
skyfri

METAR: KSAW 210618Z AUTO 00000KT 10SM CLR 02/00 A3016 RMK AO2 T00220000

Tid: 02:38 (06:38 UTC)

Vejrudsigter

Denne rapport blev lavet for 1 time og 8 minutter siden, kl. 05:30 UTC
Foreløbig gælder fra 21 på 06 UTC til 22 på 06 UTC
Vind kt fra nord
Sigt: 10 km
skyfri
Fra 21 på 1400 UTC
Vind 6 kt fra nordøst
Sigt: 10 km
Nogle få skyer i en højde af 25000 ft
Fra 21 på 2000 UTC
Vind 10 kt fra østnordøst
Sigt: 10 km
Spredte skyer i en højde af 18000 ft
Fra 22 på 0300 UTC
Vind 6 kt fra øst
Sigt: 10 km
Brudte skyer i en højde af 15000 ft

TAF: KSAW 210530Z 2106/2206 00000KT P6SM SKC FM211400 04006KT P6SM FEW250 FM212000 07010KT P6SM SCT180 FM220300 10006KT P6SM BKN150

Vejrobservationer og prognoser fra mere end 4000 lufthavne (METAR og TAF).

De gule og røde prikker repræsenterer de meteorologiske stationer.

Flyt musen over at se navnet på stationen.

Så klik over at se vejr observationer og prognoser.

At skifte det kort: Klik på de grønne knapper med et sort kors for at zoome ind; på den grønne knap med en bindestreg for at zoome ud; eller på de grønne pile for tilstødende kort.


METAR-TAF: